createdAt,value
2019-04-26T00:02:42.424Z,96936.13
2019-04-26T00:05:10.218Z,96937.84
2019-04-26T00:07:36.563Z,96936.73
2019-04-26T00:10:03.626Z,96932.09
2019-04-26T00:12:30.645Z,96930.66
2019-04-26T00:15:03.401Z,96944.40
2019-04-26T00:17:45.350Z,96941.11
2019-04-26T00:20:12.977Z,96949.44
2019-04-26T00:22:39.563Z,96955.05
2019-04-26T00:25:06.587Z,96964.16
2019-04-26T00:27:33.644Z,96969.61
2019-04-26T00:30:00.679Z,96958.05
2019-04-26T00:32:28.168Z,96964.57
2019-04-26T00:34:55.619Z,96952.63
2019-04-26T00:37:22.628Z,96951.11
2019-04-26T00:39:49.669Z,96963.85
2019-04-26T00:42:16.691Z,96955.89
2019-04-26T00:44:43.686Z,96962.55
2019-04-26T00:47:10.715Z,96953.75
2019-04-26T00:49:43.947Z,96932.42
2019-04-26T00:52:05.114Z,96943.70
2019-04-26T00:54:32.175Z,96937.20
2019-04-26T00:56:59.157Z,96928.06
2019-04-26T00:59:26.159Z,96933.77
2019-04-26T01:01:53.163Z,96947.38
2019-04-26T01:04:20.931Z,96959.61
2019-04-26T01:06:47.187Z,96965.48
2019-04-26T01:09:15.924Z,96969.34
2019-04-26T01:11:41.277Z,96972.23
2019-04-26T01:14:08.324Z,96973.91
2019-04-26T01:16:35.323Z,96978.90
2019-04-26T01:19:02.339Z,96976.39
2019-04-26T01:21:29.795Z,96970.64
2019-04-26T01:23:56.783Z,96978.45
2019-04-26T01:26:23.799Z,96966.46
2019-04-26T01:28:52.617Z,96955.54
2019-04-26T01:31:19.967Z,96980.57
2019-04-26T01:33:46.693Z,96981.64
2019-04-26T01:36:13.819Z,96975.34
2019-04-26T01:38:40.736Z,96997.55
2019-04-26T01:41:08.336Z,96970.85
2019-04-26T01:43:45.271Z,96976.04
2019-04-26T01:46:12.958Z,96982.50
2019-04-26T01:48:43.553Z,96971.00
2019-04-26T01:51:10.646Z,96953.89
2019-04-26T01:53:37.794Z,96957.11
2019-04-26T01:56:04.925Z,96978.38
2019-04-26T01:58:32.012Z,96968.97
2019-04-26T02:03:50.911Z,96976.00
2019-04-26T02:06:25.433Z,96963.33
2019-04-26T02:08:45.025Z,96963.41
2019-04-26T02:11:12.047Z,96956.92
2019-04-26T02:13:39.035Z,96954.57
2019-04-26T02:16:06.074Z,96944.18
2019-04-26T02:18:33.559Z,96928.44
2019-04-26T02:21:01.083Z,96927.96
2019-04-26T02:23:39.877Z,96924.61
2019-04-26T02:26:12.429Z,96926.53
2019-04-26T02:28:39.646Z,96937.82
2019-04-26T02:31:06.754Z,96947.89
2019-04-26T02:33:35.345Z,96957.78
2019-04-26T02:36:00.997Z,96956.44
2019-04-26T02:38:29.321Z,96956.03
2019-04-26T02:40:55.062Z,96948.47
2019-04-26T02:43:22.380Z,96937.34
2019-04-26T02:45:52.059Z,96940.83
2019-04-26T02:48:20.817Z,96935.48
2019-04-26T02:50:57.752Z,96937.41
2019-04-26T02:53:29.669Z,96946.73
2019-04-26T02:56:11.791Z,96947.50
2019-04-26T03:01:38.748Z,96943.66
2019-04-26T03:04:03.934Z,96942.23
2019-04-26T03:06:33.913Z,96944.51
2019-04-26T03:08:58.054Z,96950.27
2019-04-26T03:11:25.056Z,96934.07
2019-04-26T03:13:55.288Z,96932.34
2019-04-26T03:16:22.283Z,96922.73
2019-04-26T03:18:54.084Z,96914.10
2019-04-26T03:23:58.537Z,96922.28
2019-04-26T03:26:25.519Z,96922.51
2019-04-26T03:28:52.550Z,96938.51
2019-04-26T03:31:52.035Z,96952.87
2019-04-26T03:34:10.431Z,96956.01
2019-04-26T03:37:00.053Z,96951.11
2019-04-26T03:39:27.942Z,96929.34
2019-04-26T03:42:02.332Z,96930.88
2019-04-26T03:46:58.826Z,96942.12
2019-04-26T03:49:29.743Z,96946.05
2019-04-26T03:51:58.711Z,96951.39
2019-04-26T03:54:25.755Z,96944.47
2019-04-26T03:56:56.627Z,96953.95
2019-04-26T03:59:29.139Z,96956.75
2019-04-26T04:02:07.864Z,96956.23
2019-04-26T04:04:49.792Z,96960.68
2019-04-26T04:07:16.814Z,96965.38
2019-04-26T04:09:46.898Z,96962.95
2019-04-26T04:12:23.828Z,96955.95
2019-04-26T04:14:51.595Z,96954.41
2019-04-26T04:17:21.291Z,96964.47
2019-04-26T04:19:54.659Z,96946.64
2019-04-26T04:22:22.261Z,96945.05
2019-04-26T04:25:02.161Z,96946.52
2019-04-26T04:27:29.186Z,96955.81
2019-04-26T04:29:56.197Z,96961.16
2019-04-26T04:32:28.968Z,96960.70
2019-04-26T04:34:55.950Z,96958.00
2019-04-26T04:37:22.960Z,96949.49
2019-04-26T04:39:50.761Z,96944.92
2019-04-26T04:42:20.734Z,96937.05
2019-04-26T04:44:59.405Z,96942.02
2019-04-26T04:47:30.934Z,96955.22
2019-04-26T04:50:06.758Z,96961.31
2019-04-26T04:52:50.142Z,96949.11
2019-04-26T04:55:19.019Z,96957.55
2019-04-26T04:57:50.422Z,96961.25
2019-04-26T05:03:38.811Z,96980.86
2019-04-26T05:06:14.328Z,96966.20
2019-04-26T05:08:53.080Z,96962.57
2019-04-26T05:11:19.219Z,96958.84
2019-04-26T05:16:59.435Z,96957.45
2019-04-26T05:22:39.408Z,96969.31
2019-04-26T05:25:18.639Z,96968.06
2019-04-26T05:27:55.094Z,96965.71
2019-04-26T05:30:43.182Z,96964.03
2019-04-26T05:33:12.345Z,96970.89
2019-04-26T05:38:47.811Z,96978.67
2019-04-26T05:44:12.950Z,96975.14
2019-04-26T05:46:59.073Z,96980.45
2019-04-26T05:52:39.343Z,96990.22
2019-04-26T05:55:22.827Z,96988.16
2019-04-26T05:57:52.563Z,97006.32
2019-04-26T06:00:32.630Z,97005.22
2019-04-26T06:03:11.585Z,96997.45
2019-04-26T06:05:40.798Z,96995.85
2019-04-26T06:08:31.260Z,96994.89
2019-04-26T06:11:06.319Z,97005.86
2019-04-26T06:13:55.918Z,97010.23
2019-04-26T06:16:36.690Z,97017.89
2019-04-26T06:25:32.269Z,97030.16
2019-04-26T06:28:02.793Z,97030.36
2019-04-26T06:30:31.012Z,97024.31
2019-04-26T06:33:04.760Z,97031.90
2019-04-26T06:35:29.800Z,97037.69
2019-04-26T06:41:01.035Z,97041.61
2019-04-26T06:43:28.968Z,97044.34
2019-04-26T06:46:04.712Z,97047.84
2019-04-26T06:48:39.016Z,97057.60
2019-04-26T06:51:24.675Z,97053.78
2019-04-26T06:53:58.593Z,97064.46
2019-04-26T06:59:43.095Z,97064.55
2019-04-26T07:02:13.679Z,97071.36
2019-04-26T07:05:15.318Z,97073.97
2019-04-26T07:07:44.674Z,97075.26
2019-04-26T07:10:27.967Z,97076.48
2019-04-26T07:13:07.870Z,97081.41
2019-04-26T07:15:41.814Z,97080.31
2019-04-26T07:18:12.850Z,97090.02
2019-04-26T07:20:42.486Z,97090.69
2019-04-26T07:26:25.616Z,97096.75
2019-04-26T07:29:04.691Z,97099.05
2019-04-26T07:31:49.106Z,97101.45
2019-04-26T07:34:23.454Z,97107.23
2019-04-26T07:40:09.394Z,97104.93
2019-04-26T07:42:47.332Z,97112.76
2019-04-26T07:45:24.254Z,97116.64
2019-04-26T07:51:13.795Z,97105.52
2019-04-26T07:53:47.937Z,97116.69
2019-04-26T07:56:21.083Z,97113.00
2019-04-26T07:59:02.767Z,97112.76
2019-04-26T08:01:29.332Z,97107.31
2019-04-26T08:04:00.500Z,97112.56
2019-04-26T08:06:28.982Z,97105.68
2019-04-26T08:09:07.438Z,97107.53
2019-04-26T08:11:36.644Z,97118.53
2019-04-26T08:14:06.236Z,97126.41
2019-04-26T08:16:33.618Z,97118.13
2019-04-26T08:19:01.063Z,97113.42
2019-04-26T08:21:31.747Z,97118.49
2019-04-26T08:23:57.741Z,97118.86
2019-04-26T08:26:26.244Z,97121.48
2019-04-26T08:28:51.670Z,97120.86
2019-04-26T08:31:21.216Z,97126.73
2019-04-26T08:33:48.688Z,97122.17
2019-04-26T08:36:14.720Z,97120.81
2019-04-26T08:38:41.928Z,97117.12
2019-04-26T08:41:09.855Z,97110.61
2019-04-26T08:43:37.383Z,97107.52
2019-04-26T08:46:12.822Z,97113.98
2019-04-26T08:48:40.502Z,97114.63
2019-04-26T08:51:15.377Z,97115.88
2019-04-26T08:53:39.959Z,97105.48
2019-04-26T08:56:07.411Z,97107.64
2019-04-26T08:58:34.903Z,97099.56
2019-04-26T09:03:54.618Z,97100.18
2019-04-26T09:06:27.660Z,97099.22
2019-04-26T09:08:55.140Z,97101.50
2019-04-26T09:11:26.407Z,97102.28
2019-04-26T09:13:50.364Z,97105.38
2019-04-26T09:16:17.974Z,97101.39
2019-04-26T09:18:52.512Z,97110.27
2019-04-26T09:21:16.832Z,97115.41
2019-04-26T09:23:50.843Z,97123.49
2019-04-26T09:26:32.640Z,97124.05
2019-04-26T09:29:05.590Z,97122.03
2019-04-26T09:34:33.173Z,97130.97
2019-04-26T09:37:00.884Z,97128.84
2019-04-26T09:39:28.392Z,97130.86
2019-04-26T09:42:01.200Z,97132.11
2019-04-26T09:44:31.402Z,97133.14
2019-04-26T09:47:13.596Z,97135.91
2019-04-26T09:49:42.322Z,97141.34
2019-04-26T09:52:09.973Z,97136.47
2019-04-26T09:54:37.530Z,97141.50
2019-04-26T09:57:04.988Z,97140.75
2019-04-26T09:59:32.489Z,97137.45
2019-04-26T10:02:00.311Z,97127.68
2019-04-26T10:04:27.450Z,97135.23
2019-04-26T10:06:54.921Z,97137.09
2019-04-26T10:09:22.794Z,97134.66
2019-04-26T10:11:50.793Z,97129.94
2019-04-26T10:14:19.182Z,97125.23
2019-04-26T10:16:53.205Z,97123.31
2019-04-26T10:19:20.831Z,97132.94
2019-04-26T10:21:48.298Z,97127.67
2019-04-26T10:24:15.765Z,97122.89
2019-04-26T10:26:43.207Z,97131.80
2019-04-26T10:29:10.735Z,97130.18
2019-04-26T10:31:38.207Z,97132.38
2019-04-26T10:34:07.740Z,97121.81
2019-04-26T10:36:33.141Z,97126.47
2019-04-26T10:39:00.623Z,97121.34
2019-04-26T10:41:28.119Z,97120.06
2019-04-26T10:43:55.615Z,97112.72
2019-04-26T10:46:24.566Z,97115.91
2019-04-26T10:48:51.312Z,97106.81
2019-04-26T10:51:18.254Z,97101.78
2019-04-26T10:53:50.486Z,97112.27
2019-04-26T10:56:24.205Z,97094.48
2019-04-26T10:58:51.644Z,97098.27
2019-04-26T11:01:19.074Z,97103.28
2019-04-26T11:03:46.532Z,97095.75
2019-04-26T11:06:14.061Z,97095.78
2019-04-26T11:08:41.139Z,97088.08
2019-04-26T11:11:08.188Z,97089.53
2019-04-26T11:13:35.223Z,97085.88
2019-04-26T11:16:06.487Z,97083.14
2019-04-26T11:18:29.708Z,97074.13
2019-04-26T11:20:57.150Z,97081.50
2019-04-26T11:23:24.599Z,97073.70
2019-04-26T11:25:52.067Z,97078.16
2019-04-26T11:28:21.382Z,97075.09
2019-04-26T11:30:47.999Z,97071.73
2019-04-26T11:33:14.553Z,97073.92
2019-04-26T11:35:42.124Z,97072.85
2019-04-26T11:38:09.607Z,97075.77
2019-04-26T11:40:37.077Z,97075.84
2019-04-26T11:43:04.585Z,97080.78
2019-04-26T11:45:32.049Z,97082.07
2019-04-26T11:47:59.553Z,97080.45
2019-04-26T11:50:27.012Z,97082.13
2019-04-26T11:52:54.520Z,97080.05
2019-04-26T11:55:25.288Z,97091.24
2019-04-26T11:57:49.473Z,97092.53
2019-04-26T12:00:28.835Z,97101.97
2019-04-26T12:02:56.289Z,97106.25
2019-04-26T12:05:25.546Z,97105.15
2019-04-26T12:07:55.572Z,97108.92
2019-04-26T12:10:23.052Z,97118.33
2019-04-26T12:12:51.782Z,97120.23
2019-04-26T12:15:29.738Z,97121.46
2019-04-26T12:17:57.912Z,97123.53
2019-04-26T12:20:13.093Z,97125.80
2019-04-26T12:22:43.257Z,97121.81
2019-04-26T12:25:08.350Z,97118.53
2019-04-26T12:27:35.657Z,97124.19
2019-04-26T12:30:03.141Z,97121.71
2019-04-26T12:32:30.635Z,97122.17
2019-04-26T12:34:58.264Z,97132.99
2019-04-26T12:37:25.835Z,97152.10
2019-04-26T12:39:53.315Z,97171.30
2019-04-26T12:42:20.839Z,97182.55
2019-04-26T12:44:51.301Z,97195.14
2019-04-26T12:47:21.253Z,97202.84
2019-04-26T12:49:48.810Z,97222.86
2019-04-26T12:52:17.396Z,97219.92
2019-04-26T12:54:44.475Z,97211.64
2019-04-26T12:57:10.908Z,97206.89
2019-04-26T12:59:44.388Z,97207.33
2019-04-26T13:02:06.231Z,97199.69
2019-04-26T13:04:36.310Z,97204.67
2019-04-26T13:07:02.321Z,97200.52
2019-04-26T13:09:29.255Z,97193.95
2019-04-26T13:12:02.298Z,97195.79
2019-04-26T13:17:35.525Z,97194.64
2019-04-26T13:19:58.904Z,97195.16
2019-04-26T13:22:26.375Z,97191.16
2019-04-26T13:24:53.839Z,97188.18
2019-04-26T13:27:21.303Z,97184.14
2019-04-26T13:30:01.378Z,97174.86
2019-04-26T13:32:16.304Z,97168.53
2019-04-26T13:34:43.751Z,97167.28
2019-04-26T13:37:11.190Z,97163.34
2019-04-26T13:39:38.630Z,97171.14
2019-04-26T13:42:09.308Z,97166.69
2019-04-26T13:44:39.516Z,97159.17
2019-04-26T13:47:21.590Z,97159.02
2019-04-26T13:49:54.659Z,97156.23
2019-04-26T13:52:22.295Z,97145.49
2019-04-26T13:54:51.175Z,97140.34
2019-04-26T13:57:17.297Z,97140.69
2019-04-26T13:59:44.735Z,97139.65
2019-04-26T14:02:12.281Z,97133.03
2019-04-26T14:04:41.118Z,97136.47
2019-04-26T14:07:07.135Z,97130.21
2019-04-26T14:09:34.586Z,97134.06
2019-04-26T14:12:10.095Z,97138.70
2019-04-26T14:14:30.195Z,97128.63
2019-04-26T14:16:57.175Z,97126.38
2019-04-26T14:19:24.644Z,97127.33
2019-04-26T14:21:52.115Z,97125.67
2019-04-26T14:24:32.261Z,97125.90
2019-04-26T14:27:00.143Z,97118.27
2019-04-26T14:29:28.409Z,97122.02
2019-04-26T14:31:55.067Z,97124.59
2019-04-26T14:34:22.523Z,97124.30
2019-04-26T14:36:50.008Z,97119.02
2019-04-26T14:39:19.632Z,97125.02
2019-04-26T14:41:45.039Z,97123.98
2019-04-26T14:44:15.749Z,97125.09
2019-04-26T14:46:48.729Z,97126.23
2019-04-26T14:49:07.451Z,97128.03
2019-04-26T14:51:34.935Z,97128.95
2019-04-26T14:54:02.398Z,97123.34
2019-04-26T14:56:30.885Z,97126.29
2019-04-26T14:58:57.325Z,97127.14
2019-04-26T15:01:32.248Z,97122.88
2019-04-26T15:04:03.616Z,97123.12
2019-04-26T15:06:32.207Z,97121.08
2019-04-26T15:08:58.569Z,97130.45
2019-04-26T15:11:26.032Z,97122.38
2019-04-26T15:13:53.477Z,97127.14
2019-04-26T15:16:22.736Z,97130.66
2019-04-26T15:18:48.562Z,97131.91
2019-04-26T15:21:16.045Z,97129.47
2019-04-26T15:23:43.576Z,97126.72
2019-04-26T15:26:12.834Z,97130.00
2019-04-26T15:28:38.629Z,97130.97
2019-04-26T15:31:06.156Z,97127.16
2019-04-26T15:33:35.886Z,97129.23
2019-04-26T15:36:02.241Z,97132.89
2019-04-26T15:38:34.843Z,97137.19
2019-04-26T15:40:58.079Z,97143.94
2019-04-26T15:43:38.447Z,97161.84
2019-04-26T15:49:17.778Z,97169.05
2019-04-26T15:51:45.285Z,97179.44
2019-04-26T15:54:12.751Z,97191.78
2019-04-26T15:56:40.245Z,97192.31
2019-04-26T15:59:07.705Z,97192.22
2019-04-26T16:01:35.157Z,97191.89
2019-04-26T16:04:06.331Z,97190.13
2019-04-26T16:06:30.204Z,97184.13
2019-04-26T16:08:57.663Z,97182.45
2019-04-26T16:11:25.231Z,97180.97
2019-04-26T16:13:58.597Z,97189.84
2019-04-26T16:16:29.177Z,97181.98
2019-04-26T16:18:57.041Z,97177.65
2019-04-26T16:21:22.050Z,97196.85
2019-04-26T16:23:51.987Z,97199.59
2019-04-26T16:26:16.105Z,97197.69
2019-04-26T16:28:46.050Z,97211.23
2019-04-26T16:31:30.165Z,97204.73
2019-04-26T16:33:59.439Z,97198.95
2019-04-26T16:36:26.994Z,97202.54
2019-04-26T16:38:57.846Z,97204.83
2019-04-26T16:41:27.329Z,97193.85
2019-04-26T16:43:53.041Z,97207.02
2019-04-26T16:46:20.630Z,97210.18
2019-04-26T16:48:44.669Z,97213.11
2019-04-26T16:51:14.465Z,97217.25
2019-04-26T16:53:58.805Z,97221.94
2019-04-26T16:56:07.168Z,97220.14
2019-04-26T16:58:38.314Z,97220.11
2019-04-26T17:01:04.551Z,97223.14
2019-04-26T17:03:29.703Z,97226.87
2019-04-26T17:06:05.217Z,97231.23
2019-04-26T17:08:24.733Z,97223.19
2019-04-26T17:10:56.334Z,97230.85
2019-04-26T17:13:23.478Z,97232.48
2019-04-26T17:15:47.303Z,97234.67
2019-04-26T17:18:14.776Z,97230.61
2019-04-26T17:20:44.902Z,97230.94
2019-04-26T17:23:15.319Z,97228.49
2019-04-26T17:25:48.358Z,97231.84
2019-04-26T17:28:17.947Z,97229.13
2019-04-26T17:30:44.658Z,97226.73
2019-04-26T17:33:10.921Z,97229.79
2019-04-26T17:35:40.910Z,97225.52
2019-04-26T17:38:05.958Z,97236.98
2019-04-26T17:40:36.690Z,97242.25
2019-04-26T17:43:01.124Z,97252.77
2019-04-26T17:45:30.539Z,97254.31
2019-04-26T17:47:56.207Z,97262.41
2019-04-26T17:50:23.760Z,97265.17
2019-04-26T17:52:51.590Z,97265.45
2019-04-26T17:55:18.768Z,97262.36
2019-04-26T17:57:49.940Z,97266.00
2019-04-26T18:00:15.622Z,97267.28
2019-04-26T18:02:47.538Z,97275.84
2019-04-26T18:05:08.940Z,97277.57
2019-04-26T18:07:43.272Z,97274.23
2019-04-26T18:10:04.951Z,97267.29
2019-04-26T18:12:32.673Z,97273.05
2019-04-26T18:15:00.092Z,97274.30
2019-04-26T18:17:38.838Z,97284.59
2019-04-26T18:20:05.217Z,97297.77
2019-04-26T18:22:37.259Z,97294.33
2019-04-26T18:25:10.860Z,97296.72
2019-04-26T18:27:35.756Z,97297.13
2019-04-26T18:30:06.590Z,97295.40
2019-04-26T18:32:27.396Z,97303.85
2019-04-26T18:34:54.883Z,97304.94
2019-04-26T18:37:23.136Z,97308.48
2019-04-26T18:39:49.991Z,97313.55
2019-04-26T18:42:17.477Z,97318.14
2019-04-26T18:44:48.059Z,97319.47
2019-04-26T18:47:14.674Z,97325.91
2019-04-26T18:49:40.107Z,97329.60
2019-04-26T18:52:08.946Z,97336.91
2019-04-26T18:54:40.874Z,97338.86
2019-04-26T18:57:09.594Z,97341.28
2019-04-26T18:59:35.993Z,97350.02
2019-04-26T19:02:03.958Z,97351.42
2019-04-26T19:04:30.974Z,97347.89
2019-04-26T19:06:58.495Z,97353.16
2019-04-26T19:09:25.957Z,97353.47
2019-04-26T19:11:55.970Z,97357.14
2019-04-26T19:14:26.635Z,97357.23
2019-04-26T19:16:59.472Z,97362.33
2019-04-26T19:19:32.560Z,97369.63
2019-04-26T19:22:01.561Z,97375.59
2019-04-26T19:24:27.931Z,97379.31
2019-04-26T19:26:55.398Z,97388.05
2019-04-26T19:29:32.710Z,97382.55
2019-04-26T19:31:51.951Z,97390.05
2019-04-26T19:34:17.971Z,97391.00
2019-04-26T19:36:45.396Z,97392.02
2019-04-26T19:39:12.854Z,97398.80
2019-04-26T19:41:41.925Z,97399.69
2019-04-26T19:44:07.815Z,97403.92
2019-04-26T19:46:37.912Z,97409.00
2019-04-26T19:49:12.488Z,97409.09
2019-04-26T19:51:38.557Z,97418.05
2019-04-26T19:54:15.930Z,97424.22
2019-04-26T19:56:56.594Z,97425.26
2019-04-26T19:59:23.426Z,97426.57
2019-04-26T20:01:55.238Z,97431.64
2019-04-26T20:04:17.665Z,97434.18
2019-04-26T20:06:48.436Z,97439.72
2019-04-26T20:09:13.779Z,97434.31
2019-04-26T20:11:41.858Z,97440.44
2019-04-26T20:14:07.773Z,97437.44
2019-04-26T20:16:36.467Z,97442.63
2019-04-26T20:19:02.726Z,97449.67
2019-04-26T20:21:32.606Z,97458.09
2019-04-26T20:23:57.740Z,97464.53
2019-04-26T20:26:25.287Z,97461.31
2019-04-26T20:28:52.822Z,97464.38
2019-04-26T20:31:30.934Z,97460.50
2019-04-26T20:33:58.422Z,97464.52
2019-04-26T20:36:25.917Z,97468.18
2019-04-26T20:38:53.384Z,97470.24
2019-04-26T20:41:22.013Z,97472.59
2019-04-26T20:44:02.286Z,97478.99
2019-04-26T20:46:15.971Z,97477.62
2019-04-26T20:48:43.391Z,97484.88
2019-04-26T20:51:11.910Z,97484.47
2019-04-26T20:53:41.354Z,97485.25
2019-04-26T20:56:09.784Z,97479.91
2019-04-26T20:58:37.495Z,97484.80
2019-04-26T21:01:01.760Z,97479.91
2019-04-26T21:03:29.220Z,97485.78
2019-04-26T21:05:59.203Z,97488.34
2019-04-26T21:08:26.720Z,97480.80
2019-04-26T21:10:52.127Z,97485.37
2019-04-26T21:13:19.319Z,97494.21
2019-04-26T21:15:58.028Z,97490.55
2019-04-26T21:18:14.284Z,97496.28
2019-04-26T21:20:42.519Z,97498.52
2019-04-26T21:23:09.295Z,97496.09
2019-04-26T21:25:37.783Z,97491.45
2019-04-26T21:28:23.965Z,97495.06
2019-04-26T21:30:52.934Z,97493.66
2019-04-26T21:33:38.993Z,97499.24
2019-04-26T21:36:05.951Z,97495.74
2019-04-26T21:38:37.611Z,97494.39
2019-04-26T21:41:11.149Z,97492.11
2019-04-26T21:43:34.690Z,97503.70
2019-04-26T21:46:07.847Z,97503.38
2019-04-26T21:48:27.975Z,97510.84
2019-04-26T21:50:55.423Z,97511.05
2019-04-26T21:53:23.993Z,97520.16
2019-04-26T21:55:50.379Z,97516.42
2019-04-26T21:58:17.887Z,97517.83
2019-04-26T22:03:38.418Z,97511.04
2019-04-26T22:06:05.936Z,97512.06
2019-04-26T22:08:34.771Z,97516.55
2019-04-26T22:11:01.432Z,97514.55
2019-04-26T22:13:31.309Z,97511.05
2019-04-26T22:16:00.191Z,97508.28
2019-04-26T22:18:28.190Z,97507.42
2019-04-26T22:20:55.651Z,97505.73
2019-04-26T22:23:26.900Z,97500.70
2019-04-26T22:25:55.970Z,97498.66
2019-04-26T22:28:23.443Z,97498.08
2019-04-26T22:30:49.368Z,97501.16
2019-04-26T22:33:16.901Z,97496.19
2019-04-26T22:35:44.337Z,97494.18
2019-04-26T22:38:11.801Z,97497.70
2019-04-26T22:40:39.394Z,97487.61
2019-04-26T22:43:20.226Z,97490.48
2019-04-26T22:45:53.877Z,97500.31
2019-04-26T22:48:23.774Z,97498.78
2019-04-26T22:50:53.700Z,97501.14
2019-04-26T22:53:17.298Z,97501.68
2019-04-26T22:55:44.755Z,97493.75
2019-04-26T22:58:13.450Z,97503.30
2019-04-26T23:00:39.679Z,97505.78
2019-04-26T23:03:07.384Z,97507.97
2019-04-26T23:05:36.610Z,97505.00
2019-04-26T23:08:03.351Z,97503.69
2019-04-26T23:10:32.062Z,97504.87
2019-04-26T23:13:08.765Z,97513.97
2019-04-26T23:15:47.077Z,97517.23
2019-04-26T23:18:24.455Z,97526.36
2019-04-26T23:20:56.746Z,97525.04
2019-04-26T23:23:24.194Z,97528.89
2019-04-26T23:25:51.675Z,97532.75
2019-04-26T23:28:19.339Z,97544.77
2019-04-26T23:30:46.820Z,97536.94
2019-04-26T23:33:15.164Z,97540.59
2019-04-26T23:35:45.747Z,97536.02
2019-04-26T23:38:09.239Z,97541.19
2019-04-26T23:40:36.691Z,97540.84
2019-04-26T23:43:04.151Z,97535.26
2019-04-26T23:45:33.176Z,97527.92
2019-04-26T23:47:59.095Z,97534.70
2019-04-26T23:50:29.511Z,97533.26
2019-04-26T23:52:54.113Z,97534.49
2019-04-26T23:55:21.585Z,97531.60
2019-04-26T23:57:49.226Z,97529.47
